This is the latest recevied weather packets stored in our database for station/object OK3MS-5. If no packets are shown the sender has not sent any weather packets the latest 10 day(s).
| Time | Temp. | Humidity | Pressure | Rain* | Wind** | Luminosity | Snow |
|---|---|---|---|---|---|---|---|
| 1777277704 | 11.11° C | 44% | 1022.5 hPa | 0 mm | - | 209 W/m² | - |
| 1777277406 | 11.11° C | 46% | 1022.5 hPa | 0 mm | - | 520 W/m² | - |
| 1777277104 | 11.67° C | 44% | 1022.2 hPa | 0 mm | - | 509 W/m² | - |
| 1777276806 | 11.11° C | 44% | 1022.5 hPa | 0 mm | - | 495 W/m² | - |
| 1777276504 | 10.56° C | 47% | 1022.7 hPa | 0 mm | - | 481 W/m² | - |
| 1777276204 | 10.56° C | 49% | 1022.7 hPa | 0 mm | - | 465 W/m² | - |
| 1777275904 | 10.56° C | 49% | 1022.8 hPa | 0 mm | - | 451 W/m² | - |
| 1777275606 | 10.56° C | 49% | 1022.8 hPa | 0 mm | - | 437 W/m² | - |
| 1777275306 | 10.56° C | 49% | 1022.7 hPa | 0 mm | - | 423 W/m² | - |
| 1777275004 | 10.56° C | 47% | 1022.9 hPa | 0 mm | - | 408 W/m² | - |
| 1777274703 | 10° C | 50% | 1022.9 hPa | 0 mm | - | 391 W/m² | - |
| 1777274404 | 10° C | 50% | 1023 hPa | 0 mm | - | 379 W/m² | - |
| 1777274104 | 9.44° C | 51% | 1023.1 hPa | 0 mm | - | 361 W/m² | - |
| 1777273805 | 8.89° C | 52% | 1023.2 hPa | 0 mm | - | 345 W/m² | - |
| 1777273506 | 8.33° C | 55% | 1023.3 hPa | 0 mm | - | 330 W/m² | - |
| 1777273203 | 8.33° C | 55% | 1023.4 hPa | 0 mm | - | 314 W/m² | - |
| 1777272903 | 8.33° C | 55% | 1023.2 hPa | 0 mm | - | 298 W/m² | - |
| 1777272605 | 7.78° C | 57% | 1023.3 hPa | 0 mm | - | 283 W/m² | - |
| 1777272304 | 7.78° C | 58% | 1023.4 hPa | 0 mm | - | 269 W/m² | - |
| 1777272003 | 7.78° C | 58% | 1023.5 hPa | 0 mm | - | 255 W/m² | - |
| 1777271705 | 7.22° C | 61% | 1023.5 hPa | 0 mm | - | 239 W/m² | - |
| 1777271405 | 7.22° C | 58% | 1023.5 hPa | 0 mm | - | 226 W/m² | - |
| 1777271103 | 6.67° C | 58% | 1023.6 hPa | 0 mm | - | 211 W/m² | - |
| 1777270804 | 6.67° C | 62% | 1023.7 hPa | 0 mm | - | 196 W/m² | - |
| 1777270516 | 6.11° C | 63% | 1023.8 hPa | 0 mm | - | 51 W/m² | - |
* Rain latest hour (hover to see other rain measurements)
** Current wind speed in m/s (hover to see current wind gust speed)